This is the latest recevied weather packets stored in our database for station/object HI3R-13. If no packets are shown the sender has not sent any weather packets the latest 10 day(s).
| Time | Temp. | Humidity | Pressure | Rain* | Wind** | Luminosity | Snow |
|---|---|---|---|---|---|---|---|
| 1778050516 | 23.33° C | 81% | 987.5 hPa | 0 mm | - | - | - |
| 1778048116 | 23.33° C | 80% | 987.6 hPa | 0 mm | - | - | - |
| 1778043918 | 23.89° C | 78% | 988.1 hPa | 0 mm | - | - | - |
| 1778041517 | 23.89° C | 75% | 988.6 hPa | 0 mm | - | - | - |
| 1778039717 | 24.44° C | 74% | 988.7 hPa | 0 mm | - | - | - |
| 1778038516 | 24.44° C | 72% | 988.8 hPa | 0 mm | - | - | - |
| 1778037316 | 24.44° C | 71% | 988.8 hPa | 0 mm | - | - | - |
| 1778034316 | 25° C | 67% | 988.6 hPa | 0 mm | - | - | - |
| 1778032516 | 25° C | 63% | 988.2 hPa | 0 mm | - | - | - |
| 1778030716 | 25.56° C | 61% | 988 hPa | 0 mm | - | - | - |
| 1778029817 | 25.56° C | 60% | 987.8 hPa | 0 mm | - | - | - |
| 1778028617 | 26.11° C | 59% | 987.6 hPa | 0 mm | - | - | - |
| 1778025617 | 27.22° C | 53% | 987.2 hPa | 0 mm | - | - | - |
| 1778024417 | 27.22° C | 52% | 986.9 hPa | 0 mm | - | - | - |
| 1778023837 | 27.78° C | 51% | 986.9 hPa | 0 mm | - | - | - |
| 1778020217 | 28.89° C | 51% | 986.5 hPa | 0 mm | - | - | - |
| 1778019016 | 30° C | 48% | 986.1 hPa | 0 mm | - | - | - |
| 1778016036 | 30.56° C | 43% | 985.9 hPa | 0 mm | - | - | - |
| 1778011216 | 32.22° C | 41% | 985.6 hPa | 0 mm | - | - | - |
| 1778008216 | 32.22° C | 41% | 985.7 hPa | 0 mm | - | - | - |
| 1778002218 | 31.67° C | 48% | 986.9 hPa | 0 mm | - | - | - |
| 1777997417 | 31.11° C | 50% | 987.7 hPa | 0 mm | - | - | - |
| 1777996817 | 30.56° C | 53% | 987.7 hPa | 0 mm | - | - | - |
| 1777996217 | 30.56° C | 51% | 987.9 hPa | 0 mm | - | - | - |
| 1777993817 | 30° C | 55% | 988 hPa | 0 mm | - | - | - |
* Rain latest hour (hover to see other rain measurements)
** Current wind speed in m/s (hover to see current wind gust speed)